sensor_id;sensor_type;location;lat;lon;timestamp;P1;durP1;ratioP1;P2;durP2;ratioP2
4835;SDS011;2432;51.226;6.904;2022-11-20T00:01:16;24.47;;;13.53;;
4835;SDS011;2432;51.226;6.904;2022-11-20T00:03:47;25.40;;;13.73;;
4835;SDS011;2432;51.226;6.904;2022-11-20T00:06:14;25.97;;;13.03;;
4835;SDS011;2432;51.226;6.904;2022-11-20T00:08:43;22.63;;;12.13;;
4835;SDS011;2432;51.226;6.904;2022-11-20T00:11:10;26.00;;;13.00;;
4835;SDS011;2432;51.226;6.904;2022-11-20T00:13:42;24.53;;;13.50;;
4835;SDS011;2432;51.226;6.904;2022-11-20T00:16:10;22.23;;;12.10;;
4835;SDS011;2432;51.226;6.904;2022-11-20T00:18:38;23.97;;;13.40;;
4835;SDS011;2432;51.226;6.904;2022-11-20T00:21:06;23.70;;;12.57;;
4835;SDS011;2432;51.226;6.904;2022-11-20T00:23:36;22.53;;;12.63;;
4835;SDS011;2432;51.226;6.904;2022-11-20T00:26:03;23.23;;;13.03;;
4835;SDS011;2432;51.226;6.904;2022-11-20T00:28:31;24.33;;;13.83;;
4835;SDS011;2432;51.226;6.904;2022-11-20T00:31:05;24.80;;;12.17;;
4835;SDS011;2432;51.226;6.904;2022-11-20T00:33:35;24.50;;;12.70;;
4835;SDS011;2432;51.226;6.904;2022-11-20T00:36:03;27.47;;;12.60;;
4835;SDS011;2432;51.226;6.904;2022-11-20T00:38:34;26.70;;;13.07;;
4835;SDS011;2432;51.226;6.904;2022-11-20T00:41:02;24.10;;;12.67;;
4835;SDS011;2432;51.226;6.904;2022-11-20T00:43:31;25.83;;;13.43;;
4835;SDS011;2432;51.226;6.904;2022-11-20T00:48:25;22.90;;;13.20;;
4835;SDS011;2432;51.226;6.904;2022-11-20T00:50:51;26.13;;;13.60;;
4835;SDS011;2432;51.226;6.904;2022-11-20T00:53:19;23.73;;;13.20;;
4835;SDS011;2432;51.226;6.904;2022-11-20T00:55:58;24.53;;;13.70;;
4835;SDS011;2432;51.226;6.904;2022-11-20T00:58:30;26.80;;;13.30;;
4835;SDS011;2432;51.226;6.904;2022-11-20T01:01:02;27.07;;;14.20;;
4835;SDS011;2432;51.226;6.904;2022-11-20T01:03:37;28.50;;;14.77;;
4835;SDS011;2432;51.226;6.904;2022-11-20T01:06:07;27.77;;;14.73;;
4835;SDS011;2432;51.226;6.904;2022-11-20T01:08:41;25.67;;;14.20;;
4835;SDS011;2432;51.226;6.904;2022-11-20T01:11:09;25.10;;;13.10;;
4835;SDS011;2432;51.226;6.904;2022-11-20T01:13:37;25.07;;;13.13;;
4835;SDS011;2432;51.226;6.904;2022-11-20T01:16:05;26.00;;;14.30;;
4835;SDS011;2432;51.226;6.904;2022-11-20T01:18:34;26.53;;;14.53;;
4835;SDS011;2432;51.226;6.904;2022-11-20T01:21:03;29.90;;;15.77;;
4835;SDS011;2432;51.226;6.904;2022-11-20T01:23:34;30.47;;;16.70;;
4835;SDS011;2432;51.226;6.904;2022-11-20T01:26:04;30.30;;;15.47;;
4835;SDS011;2432;51.226;6.904;2022-11-20T01:28:32;30.70;;;16.17;;
4835;SDS011;2432;51.226;6.904;2022-11-20T01:30:59;30.30;;;17.07;;
4835;SDS011;2432;51.226;6.904;2022-11-20T01:33:25;31.47;;;15.43;;
4835;SDS011;2432;51.226;6.904;2022-11-20T01:35:53;29.87;;;16.50;;
4835;SDS011;2432;51.226;6.904;2022-11-20T01:38:19;29.67;;;16.80;;
4835;SDS011;2432;51.226;6.904;2022-11-20T01:40:53;29.70;;;16.73;;
4835;SDS011;2432;51.226;6.904;2022-11-20T01:43:21;28.73;;;15.90;;
4835;SDS011;2432;51.226;6.904;2022-11-20T01:48:35;31.47;;;16.83;;
4835;SDS011;2432;51.226;6.904;2022-11-20T01:51:05;29.27;;;17.23;;
4835;SDS011;2432;51.226;6.904;2022-11-20T01:53:37;30.23;;;17.90;;
4835;SDS011;2432;51.226;6.904;2022-11-20T01:56:05;32.10;;;18.27;;
4835;SDS011;2432;51.226;6.904;2022-11-20T01:58:37;30.80;;;17.47;;
4835;SDS011;2432;51.226;6.904;2022-11-20T02:01:08;30.50;;;17.00;;
4835;SDS011;2432;51.226;6.904;2022-11-20T02:03:35;31.63;;;18.07;;
4835;SDS011;2432;51.226;6.904;2022-11-20T02:08:45;34.00;;;18.83;;
4835;SDS011;2432;51.226;6.904;2022-11-20T02:11:11;34.87;;;19.43;;
4835;SDS011;2432;51.226;6.904;2022-11-20T02:13:38;32.73;;;18.83;;
4835;SDS011;2432;51.226;6.904;2022-11-20T02:16:16;34.07;;;17.80;;
4835;SDS011;2432;51.226;6.904;2022-11-20T02:18:46;34.07;;;18.90;;
4835;SDS011;2432;51.226;6.904;2022-11-20T02:26:32;32.47;;;17.50;;
4835;SDS011;2432;51.226;6.904;2022-11-20T02:29:04;33.77;;;17.87;;
4835;SDS011;2432;51.226;6.904;2022-11-20T02:31:35;30.40;;;16.93;;
4835;SDS011;2432;51.226;6.904;2022-11-20T02:34:03;31.37;;;17.50;;
4835;SDS011;2432;51.226;6.904;2022-11-20T02:36:30;33.80;;;17.97;;
4835;SDS011;2432;51.226;6.904;2022-11-20T02:38:58;30.57;;;17.60;;
4835;SDS011;2432;51.226;6.904;2022-11-20T02:41:34;31.67;;;17.17;;
4835;SDS011;2432;51.226;6.904;2022-11-20T02:44:04;29.70;;;17.50;;
4835;SDS011;2432;51.226;6.904;2022-11-20T02:46:31;28.53;;;16.50;;
4835;SDS011;2432;51.226;6.904;2022-11-20T02:48:58;29.93;;;17.93;;
4835;SDS011;2432;51.226;6.904;2022-11-20T02:51:26;31.80;;;16.63;;
4835;SDS011;2432;51.226;6.904;2022-11-20T02:53:52;29.43;;;16.43;;
4835;SDS011;2432;51.226;6.904;2022-11-20T02:56:19;30.03;;;16.80;;
4835;SDS011;2432;51.226;6.904;2022-11-20T02:58:46;37.43;;;17.87;;
4835;SDS011;2432;51.226;6.904;2022-11-20T03:01:12;29.53;;;17.23;;
4835;SDS011;2432;51.226;6.904;2022-11-20T03:03:39;32.50;;;18.33;;
4835;SDS011;2432;51.226;6.904;2022-11-20T03:06:06;29.40;;;16.43;;
4835;SDS011;2432;51.226;6.904;2022-11-20T03:08:33;29.33;;;16.83;;
4835;SDS011;2432;51.226;6.904;2022-11-20T03:11:04;30.83;;;17.97;;
4835;SDS011;2432;51.226;6.904;2022-11-20T03:13:32;30.77;;;16.63;;
4835;SDS011;2432;51.226;6.904;2022-11-20T03:16:04;31.60;;;17.40;;
4835;SDS011;2432;51.226;6.904;2022-11-20T03:18:31;30.33;;;17.70;;
4835;SDS011;2432;51.226;6.904;2022-11-20T03:20:58;30.23;;;17.37;;
4835;SDS011;2432;51.226;6.904;2022-11-20T03:23:25;29.57;;;17.53;;
4835;SDS011;2432;51.226;6.904;2022-11-20T03:25:52;31.97;;;18.37;;
4835;SDS011;2432;51.226;6.904;2022-11-20T03:28:18;31.13;;;16.70;;
4835;SDS011;2432;51.226;6.904;2022-11-20T03:30:45;29.30;;;17.17;;
4835;SDS011;2432;51.226;6.904;2022-11-20T03:33:11;28.90;;;16.80;;
4835;SDS011;2432;51.226;6.904;2022-11-20T03:35:38;28.97;;;16.50;;
4835;SDS011;2432;51.226;6.904;2022-11-20T03:38:04;28.53;;;16.93;;
4835;SDS011;2432;51.226;6.904;2022-11-20T03:40:31;31.73;;;17.00;;
4835;SDS011;2432;51.226;6.904;2022-11-20T03:42:59;34.23;;;18.80;;
4835;SDS011;2432;51.226;6.904;2022-11-20T03:45:26;31.60;;;18.50;;
4835;SDS011;2432;51.226;6.904;2022-11-20T03:47:52;31.37;;;17.60;;
4835;SDS011;2432;51.226;6.904;2022-11-20T03:50:19;31.90;;;18.43;;
4835;SDS011;2432;51.226;6.904;2022-11-20T03:52:45;28.60;;;15.37;;
4835;SDS011;2432;51.226;6.904;2022-11-20T03:55:12;32.30;;;16.50;;
4835;SDS011;2432;51.226;6.904;2022-11-20T03:57:38;29.93;;;17.30;;
4835;SDS011;2432;51.226;6.904;2022-11-20T04:00:05;29.57;;;16.37;;
4835;SDS011;2432;51.226;6.904;2022-11-20T04:02:32;30.70;;;16.70;;
4835;SDS011;2432;51.226;6.904;2022-11-20T04:04:59;29.27;;;16.90;;
4835;SDS011;2432;51.226;6.904;2022-11-20T04:07:25;32.70;;;17.17;;
4835;SDS011;2432;51.226;6.904;2022-11-20T04:09:52;31.37;;;16.93;;
4835;SDS011;2432;51.226;6.904;2022-11-20T04:12:18;30.87;;;16.43;;
4835;SDS011;2432;51.226;6.904;2022-11-20T04:14:45;29.20;;;16.17;;
4835;SDS011;2432;51.226;6.904;2022-11-20T04:17:11;30.40;;;16.87;;
4835;SDS011;2432;51.226;6.904;2022-11-20T04:19:37;28.13;;;16.10;;
4835;SDS011;2432;51.226;6.904;2022-11-20T04:22:04;28.70;;;15.50;;
4835;SDS011;2432;51.226;6.904;2022-11-20T04:24:30;28.50;;;16.17;;
4835;SDS011;2432;51.226;6.904;2022-11-20T04:26:58;29.10;;;16.60;;
4835;SDS011;2432;51.226;6.904;2022-11-20T04:29:24;28.70;;;16.17;;
4835;SDS011;2432;51.226;6.904;2022-11-20T04:31:51;29.87;;;16.43;;
4835;SDS011;2432;51.226;6.904;2022-11-20T04:34:17;29.23;;;15.93;;
4835;SDS011;2432;51.226;6.904;2022-11-20T04:36:44;31.57;;;17.00;;
4835;SDS011;2432;51.226;6.904;2022-11-20T04:39:11;26.50;;;15.63;;
4835;SDS011;2432;51.226;6.904;2022-11-20T04:41:40;32.70;;;17.30;;
4835;SDS011;2432;51.226;6.904;2022-11-20T04:44:07;29.43;;;16.90;;
4835;SDS011;2432;51.226;6.904;2022-11-20T04:46:34;31.00;;;16.90;;
4835;SDS011;2432;51.226;6.904;2022-11-20T04:49:03;30.43;;;16.67;;
4835;SDS011;2432;51.226;6.904;2022-11-20T04:51:30;29.53;;;16.50;;
4835;SDS011;2432;51.226;6.904;2022-11-20T04:53:57;28.57;;;16.57;;
4835;SDS011;2432;51.226;6.904;2022-11-20T04:56:23;28.90;;;16.37;;
4835;SDS011;2432;51.226;6.904;2022-11-20T04:58:50;27.50;;;16.13;;
4835;SDS011;2432;51.226;6.904;2022-11-20T05:01:18;30.40;;;16.77;;
4835;SDS011;2432;51.226;6.904;2022-11-20T05:03:46;26.90;;;15.17;;
4835;SDS011;2432;51.226;6.904;2022-11-20T05:06:13;29.47;;;16.07;;
4835;SDS011;2432;51.226;6.904;2022-11-20T05:08:41;28.87;;;16.40;;
4835;SDS011;2432;51.226;6.904;2022-11-20T05:11:12;31.20;;;16.37;;
4835;SDS011;2432;51.226;6.904;2022-11-20T05:13:40;31.77;;;16.60;;
4835;SDS011;2432;51.226;6.904;2022-11-20T05:16:09;27.70;;;16.03;;
4835;SDS011;2432;51.226;6.904;2022-11-20T05:18:37;30.10;;;16.27;;
4835;SDS011;2432;51.226;6.904;2022-11-20T05:21:05;25.97;;;14.93;;
4835;SDS011;2432;51.226;6.904;2022-11-20T05:23:33;29.67;;;16.77;;
4835;SDS011;2432;51.226;6.904;2022-11-20T05:26:00;29.37;;;16.27;;
4835;SDS011;2432;51.226;6.904;2022-11-20T05:28:28;31.80;;;15.53;;
4835;SDS011;2432;51.226;6.904;2022-11-20T05:30:56;29.63;;;15.57;;
4835;SDS011;2432;51.226;6.904;2022-11-20T05:33:29;31.93;;;17.10;;
4835;SDS011;2432;51.226;6.904;2022-11-20T05:35:59;30.90;;;18.07;;
4835;SDS011;2432;51.226;6.904;2022-11-20T05:38:25;30.80;;;16.60;;
4835;SDS011;2432;51.226;6.904;2022-11-20T05:40:52;30.50;;;17.47;;
4835;SDS011;2432;51.226;6.904;2022-11-20T05:43:18;27.37;;;16.13;;
4835;SDS011;2432;51.226;6.904;2022-11-20T05:45:52;32.80;;;18.20;;
4835;SDS011;2432;51.226;6.904;2022-11-20T05:48:21;32.07;;;16.13;;
4835;SDS011;2432;51.226;6.904;2022-11-20T05:50:47;32.20;;;18.53;;
4835;SDS011;2432;51.226;6.904;2022-11-20T05:53:14;30.70;;;17.53;;
4835;SDS011;2432;51.226;6.904;2022-11-20T05:55:41;31.10;;;16.10;;
4835;SDS011;2432;51.226;6.904;2022-11-20T05:58:07;29.93;;;16.27;;
4835;SDS011;2432;51.226;6.904;2022-11-20T06:00:34;32.80;;;17.07;;
4835;SDS011;2432;51.226;6.904;2022-11-20T06:03:01;29.10;;;16.80;;
4835;SDS011;2432;51.226;6.904;2022-11-20T06:05:28;28.57;;;16.40;;
4835;SDS011;2432;51.226;6.904;2022-11-20T06:07:54;32.23;;;16.93;;
4835;SDS011;2432;51.226;6.904;2022-11-20T06:10:21;31.97;;;16.80;;
4835;SDS011;2432;51.226;6.904;2022-11-20T06:12:47;29.50;;;16.90;;
4835;SDS011;2432;51.226;6.904;2022-11-20T06:15:14;31.87;;;17.03;;
4835;SDS011;2432;51.226;6.904;2022-11-20T06:17:40;34.23;;;17.23;;
4835;SDS011;2432;51.226;6.904;2022-11-20T06:20:06;28.87;;;16.37;;
4835;SDS011;2432;51.226;6.904;2022-11-20T06:22:33;29.33;;;16.13;;
4835;SDS011;2432;51.226;6.904;2022-11-20T06:25:00;31.13;;;16.97;;
4835;SDS011;2432;51.226;6.904;2022-11-20T06:27:26;30.60;;;17.43;;
4835;SDS011;2432;51.226;6.904;2022-11-20T06:29:53;30.57;;;17.40;;
4835;SDS011;2432;51.226;6.904;2022-11-20T06:32:19;29.63;;;16.93;;
4835;SDS011;2432;51.226;6.904;2022-11-20T06:34:46;28.90;;;17.00;;
4835;SDS011;2432;51.226;6.904;2022-11-20T06:37:12;33.33;;;16.60;;
4835;SDS011;2432;51.226;6.904;2022-11-20T06:39:38;33.40;;;16.80;;
4835;SDS011;2432;51.226;6.904;2022-11-20T06:42:05;33.70;;;18.17;;
4835;SDS011;2432;51.226;6.904;2022-11-20T06:44:31;34.10;;;17.80;;
4835;SDS011;2432;51.226;6.904;2022-11-20T06:46:58;33.20;;;16.77;;
4835;SDS011;2432;51.226;6.904;2022-11-20T06:49:24;31.13;;;16.87;;
4835;SDS011;2432;51.226;6.904;2022-11-20T06:51:52;31.57;;;17.03;;
4835;SDS011;2432;51.226;6.904;2022-11-20T06:54:18;27.30;;;15.83;;
4835;SDS011;2432;51.226;6.904;2022-11-20T06:56:48;27.57;;;15.10;;
4835;SDS011;2432;51.226;6.904;2022-11-20T06:59:14;29.37;;;15.90;;
4835;SDS011;2432;51.226;6.904;2022-11-20T07:01:41;28.83;;;16.23;;
4835;SDS011;2432;51.226;6.904;2022-11-20T07:04:07;31.60;;;15.77;;
4835;SDS011;2432;51.226;6.904;2022-11-20T07:06:34;29.87;;;16.87;;
4835;SDS011;2432;51.226;6.904;2022-11-20T07:09:00;29.87;;;17.20;;
4835;SDS011;2432;51.226;6.904;2022-11-20T07:11:27;28.00;;;15.93;;
4835;SDS011;2432;51.226;6.904;2022-11-20T07:13:54;30.47;;;15.77;;
4835;SDS011;2432;51.226;6.904;2022-11-20T07:16:20;28.73;;;15.40;;
4835;SDS011;2432;51.226;6.904;2022-11-20T07:18:46;31.03;;;16.73;;
4835;SDS011;2432;51.226;6.904;2022-11-20T07:21:16;27.70;;;15.27;;
4835;SDS011;2432;51.226;6.904;2022-11-20T07:23:44;28.57;;;16.43;;
4835;SDS011;2432;51.226;6.904;2022-11-20T07:26:11;28.43;;;16.20;;
4835;SDS011;2432;51.226;6.904;2022-11-20T07:28:37;30.37;;;17.30;;
4835;SDS011;2432;51.226;6.904;2022-11-20T07:31:04;29.50;;;15.27;;
4835;SDS011;2432;51.226;6.904;2022-11-20T07:33:32;27.80;;;15.03;;
4835;SDS011;2432;51.226;6.904;2022-11-20T07:35:59;25.87;;;14.93;;
4835;SDS011;2432;51.226;6.904;2022-11-20T07:38:26;32.10;;;16.00;;
4835;SDS011;2432;51.226;6.904;2022-11-20T07:40:55;30.80;;;17.23;;
4835;SDS011;2432;51.226;6.904;2022-11-20T07:43:23;28.47;;;16.13;;
4835;SDS011;2432;51.226;6.904;2022-11-20T07:45:51;31.17;;;16.60;;
4835;SDS011;2432;51.226;6.904;2022-11-20T07:48:17;30.90;;;16.90;;
4835;SDS011;2432;51.226;6.904;2022-11-20T07:50:44;31.27;;;17.33;;
4835;SDS011;2432;51.226;6.904;2022-11-20T07:53:10;30.70;;;16.47;;
4835;SDS011;2432;51.226;6.904;2022-11-20T07:55:38;31.70;;;16.60;;
4835;SDS011;2432;51.226;6.904;2022-11-20T07:58:05;28.37;;;15.50;;
4835;SDS011;2432;51.226;6.904;2022-11-20T08:00:31;31.40;;;15.63;;
4835;SDS011;2432;51.226;6.904;2022-11-20T08:02:58;32.20;;;17.40;;
4835;SDS011;2432;51.226;6.904;2022-11-20T08:05:24;28.50;;;15.87;;
4835;SDS011;2432;51.226;6.904;2022-11-20T08:07:51;30.00;;;16.57;;
4835;SDS011;2432;51.226;6.904;2022-11-20T08:10:17;29.47;;;16.27;;
4835;SDS011;2432;51.226;6.904;2022-11-20T08:12:45;30.33;;;16.93;;
4835;SDS011;2432;51.226;6.904;2022-11-20T08:15:34;29.20;;;16.40;;
4835;SDS011;2432;51.226;6.904;2022-11-20T08:18:05;27.90;;;15.57;;
4835;SDS011;2432;51.226;6.904;2022-11-20T08:21:05;32.33;;;16.50;;
4835;SDS011;2432;51.226;6.904;2022-11-20T08:23:31;29.00;;;16.13;;
4835;SDS011;2432;51.226;6.904;2022-11-20T08:25:58;25.53;;;14.20;;
4835;SDS011;2432;51.226;6.904;2022-11-20T08:28:24;29.90;;;16.30;;
4835;SDS011;2432;51.226;6.904;2022-11-20T08:30:51;34.90;;;17.30;;
4835;SDS011;2432;51.226;6.904;2022-11-20T08:33:23;33.07;;;17.90;;
4835;SDS011;2432;51.226;6.904;2022-11-20T08:35:49;29.20;;;15.83;;
4835;SDS011;2432;51.226;6.904;2022-11-20T08:38:16;25.97;;;15.17;;
4835;SDS011;2432;51.226;6.904;2022-11-20T08:40:42;27.97;;;15.77;;
4835;SDS011;2432;51.226;6.904;2022-11-20T08:43:29;29.40;;;16.50;;
4835;SDS011;2432;51.226;6.904;2022-11-20T08:45:56;28.23;;;17.03;;
4835;SDS011;2432;51.226;6.904;2022-11-20T08:48:23;31.60;;;16.70;;
4835;SDS011;2432;51.226;6.904;2022-11-20T08:50:49;32.33;;;16.50;;
4835;SDS011;2432;51.226;6.904;2022-11-20T08:53:16;29.13;;;16.70;;
4835;SDS011;2432;51.226;6.904;2022-11-20T08:55:42;30.87;;;15.10;;
4835;SDS011;2432;51.226;6.904;2022-11-20T08:58:09;35.93;;;19.37;;
4835;SDS011;2432;51.226;6.904;2022-11-20T09:00:35;33.47;;;18.60;;
4835;SDS011;2432;51.226;6.904;2022-11-20T09:03:02;29.33;;;16.70;;
4835;SDS011;2432;51.226;6.904;2022-11-20T09:05:28;29.00;;;16.20;;
4835;SDS011;2432;51.226;6.904;2022-11-20T09:07:58;26.97;;;15.30;;
4835;SDS011;2432;51.226;6.904;2022-11-20T09:10:26;30.10;;;14.97;;
4835;SDS011;2432;51.226;6.904;2022-11-20T09:12:53;30.00;;;15.80;;
4835;SDS011;2432;51.226;6.904;2022-11-20T09:15:21;28.57;;;16.20;;
4835;SDS011;2432;51.226;6.904;2022-11-20T09:17:52;27.87;;;15.50;;
4835;SDS011;2432;51.226;6.904;2022-11-20T09:20:29;26.87;;;15.10;;
4835;SDS011;2432;51.226;6.904;2022-11-20T09:22:57;26.47;;;15.20;;
4835;SDS011;2432;51.226;6.904;2022-11-20T09:25:23;33.93;;;15.67;;
4835;SDS011;2432;51.226;6.904;2022-11-20T09:27:57;30.07;;;16.43;;
4835;SDS011;2432;51.226;6.904;2022-11-20T09:30:25;26.87;;;15.57;;
4835;SDS011;2432;51.226;6.904;2022-11-20T09:32:52;28.63;;;15.97;;
4835;SDS011;2432;51.226;6.904;2022-11-20T10:30:12;37.83;;;18.87;;
4835;SDS011;2432;51.226;6.904;2022-11-20T10:32:47;30.80;;;17.77;;
4835;SDS011;2432;51.226;6.904;2022-11-20T10:35:22;31.57;;;18.33;;
4835;SDS011;2432;51.226;6.904;2022-11-20T10:37:51;34.27;;;17.67;;
4835;SDS011;2432;51.226;6.904;2022-11-20T10:41:06;33.80;;;17.40;;
4835;SDS011;2432;51.226;6.904;2022-11-20T10:43:46;31.77;;;15.80;;
4835;SDS011;2432;51.226;6.904;2022-11-20T10:46:15;31.17;;;16.60;;
4835;SDS011;2432;51.226;6.904;2022-11-20T10:48:43;32.63;;;17.37;;
4835;SDS011;2432;51.226;6.904;2022-11-20T10:54:18;31.77;;;17.13;;
4835;SDS011;2432;51.226;6.904;2022-11-20T10:56:53;32.07;;;17.10;;
4835;SDS011;2432;51.226;6.904;2022-11-20T10:59:28;54.70;;;29.67;;
4835;SDS011;2432;51.226;6.904;2022-11-20T11:02:20;35.23;;;19.17;;
4835;SDS011;2432;51.226;6.904;2022-11-20T11:04:49;35.50;;;18.40;;
4835;SDS011;2432;51.226;6.904;2022-11-20T11:09:56;32.77;;;17.33;;
4835;SDS011;2432;51.226;6.904;2022-11-20T11:12:24;29.80;;;16.00;;
4835;SDS011;2432;51.226;6.904;2022-11-20T11:14:53;31.60;;;16.40;;
4835;SDS011;2432;51.226;6.904;2022-11-20T11:17:45;33.10;;;17.07;;
4835;SDS011;2432;51.226;6.904;2022-11-20T11:20:15;32.33;;;15.80;;
4835;SDS011;2432;51.226;6.904;2022-11-20T11:23:04;28.27;;;15.67;;
4835;SDS011;2432;51.226;6.904;2022-11-20T11:25:31;29.30;;;16.17;;
4835;SDS011;2432;51.226;6.904;2022-11-20T11:28:00;30.23;;;16.47;;
4835;SDS011;2432;51.226;6.904;2022-11-20T11:30:28;30.50;;;17.60;;
4835;SDS011;2432;51.226;6.904;2022-11-20T11:33:08;32.13;;;17.20;;
4835;SDS011;2432;51.226;6.904;2022-11-20T11:35:44;35.40;;;16.70;;
4835;SDS011;2432;51.226;6.904;2022-11-20T11:38:17;31.63;;;17.90;;
4835;SDS011;2432;51.226;6.904;2022-11-20T11:40:49;29.23;;;16.17;;
4835;SDS011;2432;51.226;6.904;2022-11-20T11:43:22;31.40;;;18.90;;
4835;SDS011;2432;51.226;6.904;2022-11-20T11:49:00;32.10;;;18.13;;
4835;SDS011;2432;51.226;6.904;2022-11-20T11:51:57;34.20;;;16.90;;
4835;SDS011;2432;51.226;6.904;2022-11-20T11:56:58;32.73;;;17.50;;
4835;SDS011;2432;51.226;6.904;2022-11-20T11:59:38;34.83;;;18.07;;
4835;SDS011;2432;51.226;6.904;2022-11-20T12:02:20;34.97;;;18.60;;
4835;SDS011;2432;51.226;6.904;2022-11-20T12:05:00;30.27;;;16.70;;
4835;SDS011;2432;51.226;6.904;2022-11-20T12:07:52;28.60;;;14.20;;
4835;SDS011;2432;51.226;6.904;2022-11-20T12:10:34;37.30;;;18.57;;
4835;SDS011;2432;51.226;6.904;2022-11-20T12:16:07;35.63;;;18.60;;
4835;SDS011;2432;51.226;6.904;2022-11-20T12:18:38;30.60;;;17.07;;
4835;SDS011;2432;51.226;6.904;2022-11-20T12:35:00;34.03;;;17.53;;
4835;SDS011;2432;51.226;6.904;2022-11-20T12:40:34;31.60;;;17.53;;
4835;SDS011;2432;51.226;6.904;2022-11-20T12:49:02;32.77;;;18.83;;
4835;SDS011;2432;51.226;6.904;2022-11-20T12:51:39;31.13;;;16.77;;
4835;SDS011;2432;51.226;6.904;2022-11-20T12:54:42;30.07;;;17.13;;
4835;SDS011;2432;51.226;6.904;2022-11-20T13:00:18;29.80;;;16.60;;
4835;SDS011;2432;51.226;6.904;2022-11-20T13:05:53;33.67;;;18.77;;
4835;SDS011;2432;51.226;6.904;2022-11-20T13:08:43;31.33;;;17.60;;
4835;SDS011;2432;51.226;6.904;2022-11-20T13:14:04;38.60;;;21.23;;
4835;SDS011;2432;51.226;6.904;2022-11-20T13:19:16;34.40;;;19.10;;
4835;SDS011;2432;51.226;6.904;2022-11-20T13:21:45;39.03;;;19.80;;
4835;SDS011;2432;51.226;6.904;2022-11-20T13:29:26;33.90;;;19.30;;
4835;SDS011;2432;51.226;6.904;2022-11-20T13:32:02;34.60;;;19.63;;
4835;SDS011;2432;51.226;6.904;2022-11-20T13:34:33;38.23;;;20.23;;
4835;SDS011;2432;51.226;6.904;2022-11-20T13:37:00;37.83;;;19.60;;
4835;SDS011;2432;51.226;6.904;2022-11-20T13:39:28;42.33;;;23.70;;
4835;SDS011;2432;51.226;6.904;2022-11-20T13:42:00;34.37;;;20.50;;
4835;SDS011;2432;51.226;6.904;2022-11-20T13:44:46;44.13;;;21.03;;
4835;SDS011;2432;51.226;6.904;2022-11-20T13:47:19;41.30;;;21.97;;
4835;SDS011;2432;51.226;6.904;2022-11-20T13:49:48;39.67;;;22.00;;
4835;SDS011;2432;51.226;6.904;2022-11-20T14:00:20;40.40;;;19.77;;
4835;SDS011;2432;51.226;6.904;2022-11-20T14:02:53;41.17;;;22.43;;
4835;SDS011;2432;51.226;6.904;2022-11-20T14:05:27;40.10;;;23.07;;
4835;SDS011;2432;51.226;6.904;2022-11-20T14:07:56;39.50;;;21.60;;
4835;SDS011;2432;51.226;6.904;2022-11-20T14:10:25;42.10;;;20.97;;
4835;SDS011;2432;51.226;6.904;2022-11-20T14:12:57;41.23;;;22.07;;
4835;SDS011;2432;51.226;6.904;2022-11-20T14:15:25;40.87;;;21.87;;
4835;SDS011;2432;51.226;6.904;2022-11-20T14:17:57;43.30;;;21.70;;
4835;SDS011;2432;51.226;6.904;2022-11-20T14:22:57;44.63;;;23.20;;
4835;SDS011;2432;51.226;6.904;2022-11-20T14:25:24;41.93;;;22.23;;
4835;SDS011;2432;51.226;6.904;2022-11-20T14:27:57;41.40;;;21.60;;
4835;SDS011;2432;51.226;6.904;2022-11-20T14:30:30;44.13;;;23.10;;
4835;SDS011;2432;51.226;6.904;2022-11-20T14:33:09;43.43;;;21.40;;
4835;SDS011;2432;51.226;6.904;2022-11-20T14:35:48;47.23;;;24.40;;
4835;SDS011;2432;51.226;6.904;2022-11-20T14:38:26;42.27;;;22.70;;
4835;SDS011;2432;51.226;6.904;2022-11-20T14:41:05;48.53;;;23.77;;
4835;SDS011;2432;51.226;6.904;2022-11-20T14:43:41;43.67;;;23.00;;
4835;SDS011;2432;51.226;6.904;2022-11-20T14:46:12;47.50;;;25.10;;
4835;SDS011;2432;51.226;6.904;2022-11-20T14:48:41;43.53;;;22.00;;
4835;SDS011;2432;51.226;6.904;2022-11-20T14:54:07;46.57;;;23.50;;
4835;SDS011;2432;51.226;6.904;2022-11-20T14:56:57;42.47;;;22.67;;
4835;SDS011;2432;51.226;6.904;2022-11-20T14:59:26;39.80;;;22.20;;
4835;SDS011;2432;51.226;6.904;2022-11-20T15:01:58;43.27;;;23.03;;
4835;SDS011;2432;51.226;6.904;2022-11-20T15:04:25;38.57;;;21.87;;
4835;SDS011;2432;51.226;6.904;2022-11-20T15:06:56;42.53;;;22.27;;
4835;SDS011;2432;51.226;6.904;2022-11-20T15:09:24;39.83;;;21.17;;
4835;SDS011;2432;51.226;6.904;2022-11-20T15:11:58;48.40;;;23.20;;
4835;SDS011;2432;51.226;6.904;2022-11-20T15:14:26;40.07;;;21.30;;
4835;SDS011;2432;51.226;6.904;2022-11-20T15:16:55;43.70;;;22.77;;
4835;SDS011;2432;51.226;6.904;2022-11-20T15:19:22;46.13;;;23.53;;
4835;SDS011;2432;51.226;6.904;2022-11-20T15:21:51;42.20;;;22.93;;
4835;SDS011;2432;51.226;6.904;2022-11-20T15:24:18;44.17;;;23.17;;
4835;SDS011;2432;51.226;6.904;2022-11-20T15:26:45;40.43;;;22.07;;
4835;SDS011;2432;51.226;6.904;2022-11-20T15:29:12;40.63;;;20.47;;
4835;SDS011;2432;51.226;6.904;2022-11-20T15:31:40;46.00;;;21.70;;
4835;SDS011;2432;51.226;6.904;2022-11-20T15:34:12;36.47;;;19.87;;
4835;SDS011;2432;51.226;6.904;2022-11-20T15:36:42;37.90;;;20.63;;
4835;SDS011;2432;51.226;6.904;2022-11-20T15:39:09;39.80;;;20.17;;
4835;SDS011;2432;51.226;6.904;2022-11-20T15:41:37;42.80;;;20.23;;
4835;SDS011;2432;51.226;6.904;2022-11-20T15:44:04;40.53;;;20.10;;
4835;SDS011;2432;51.226;6.904;2022-11-20T15:46:31;36.27;;;19.37;;
4835;SDS011;2432;51.226;6.904;2022-11-20T15:49:04;39.83;;;20.90;;
4835;SDS011;2432;51.226;6.904;2022-11-20T15:51:36;39.50;;;21.97;;
4835;SDS011;2432;51.226;6.904;2022-11-20T15:54:11;37.30;;;19.60;;
4835;SDS011;2432;51.226;6.904;2022-11-20T15:56:39;37.37;;;19.20;;
4835;SDS011;2432;51.226;6.904;2022-11-20T15:59:06;38.17;;;20.70;;
4835;SDS011;2432;51.226;6.904;2022-11-20T16:01:33;38.67;;;21.10;;
4835;SDS011;2432;51.226;6.904;2022-11-20T16:04:00;40.53;;;19.33;;
4835;SDS011;2432;51.226;6.904;2022-11-20T16:06:27;47.83;;;20.33;;
4835;SDS011;2432;51.226;6.904;2022-11-20T16:08:53;36.03;;;20.23;;
4835;SDS011;2432;51.226;6.904;2022-11-20T16:11:20;38.97;;;19.47;;
4835;SDS011;2432;51.226;6.904;2022-11-20T16:13:46;36.30;;;19.47;;
4835;SDS011;2432;51.226;6.904;2022-11-20T16:16:32;35.07;;;18.67;;
4835;SDS011;2432;51.226;6.904;2022-11-20T16:19:00;42.83;;;24.50;;
4835;SDS011;2432;51.226;6.904;2022-11-20T16:21:27;44.30;;;23.47;;
4835;SDS011;2432;51.226;6.904;2022-11-20T16:24:00;34.77;;;19.17;;
4835;SDS011;2432;51.226;6.904;2022-11-20T16:26:28;33.97;;;18.00;;
4835;SDS011;2432;51.226;6.904;2022-11-20T16:28:55;38.37;;;21.67;;
4835;SDS011;2432;51.226;6.904;2022-11-20T16:31:24;42.20;;;19.23;;
4835;SDS011;2432;51.226;6.904;2022-11-20T16:33:51;36.70;;;18.50;;
4835;SDS011;2432;51.226;6.904;2022-11-20T16:36:19;38.50;;;18.80;;
4835;SDS011;2432;51.226;6.904;2022-11-20T16:38:46;33.90;;;19.13;;
4835;SDS011;2432;51.226;6.904;2022-11-20T16:41:13;41.17;;;20.10;;
4835;SDS011;2432;51.226;6.904;2022-11-20T16:43:46;33.60;;;18.60;;
4835;SDS011;2432;51.226;6.904;2022-11-20T16:46:18;35.80;;;19.13;;
4835;SDS011;2432;51.226;6.904;2022-11-20T16:49:05;32.50;;;17.10;;
4835;SDS011;2432;51.226;6.904;2022-11-20T16:51:35;41.03;;;19.53;;
4835;SDS011;2432;51.226;6.904;2022-11-20T16:54:03;34.60;;;17.20;;
4835;SDS011;2432;51.226;6.904;2022-11-20T16:56:31;31.40;;;15.73;;
4835;SDS011;2432;51.226;6.904;2022-11-20T16:58:58;30.90;;;16.37;;
4835;SDS011;2432;51.226;6.904;2022-11-20T17:01:26;32.60;;;16.30;;
4835;SDS011;2432;51.226;6.904;2022-11-20T17:06:21;34.20;;;16.90;;
4835;SDS011;2432;51.226;6.904;2022-11-20T17:08:50;31.23;;;16.40;;
4835;SDS011;2432;51.226;6.904;2022-11-20T17:11:17;37.60;;;16.20;;
4835;SDS011;2432;51.226;6.904;2022-11-20T17:13:44;28.20;;;14.53;;
4835;SDS011;2432;51.226;6.904;2022-11-20T17:16:13;30.10;;;16.00;;
4835;SDS011;2432;51.226;6.904;2022-11-20T17:18:44;30.10;;;14.60;;
4835;SDS011;2432;51.226;6.904;2022-11-20T17:21:11;26.70;;;14.27;;